sensor_id;sensor_type;location;lat;lon;timestamp;P1;durP1;ratioP1;P2;durP2;ratioP2
81314;SDS011;72214;52.510;5.718;2023-08-20T00:00:40;5.07;;;1.10;;
81314;SDS011;72214;52.510;5.718;2023-08-20T00:03:12;2.20;;;1.30;;
81314;SDS011;72214;52.510;5.718;2023-08-20T00:05:41;4.38;;;1.38;;
81314;SDS011;72214;52.510;5.718;2023-08-20T00:08:11;5.45;;;1.02;;
81314;SDS011;72214;52.510;5.718;2023-08-20T00:10:40;3.70;;;1.45;;
81314;SDS011;72214;52.510;5.718;2023-08-20T00:13:12;3.85;;;0.90;;
81314;SDS011;72214;52.510;5.718;2023-08-20T00:15:41;5.32;;;1.65;;
81314;SDS011;72214;52.510;5.718;2023-08-20T00:18:11;3.53;;;1.75;;
81314;SDS011;72214;52.510;5.718;2023-08-20T00:20:41;3.25;;;1.05;;
81314;SDS011;72214;52.510;5.718;2023-08-20T00:23:12;3.80;;;0.90;;
81314;SDS011;72214;52.510;5.718;2023-08-20T00:25:43;2.00;;;1.25;;
81314;SDS011;72214;52.510;5.718;2023-08-20T00:28:15;2.50;;;1.00;;
81314;SDS011;72214;52.510;5.718;2023-08-20T00:30:45;3.80;;;1.60;;
81314;SDS011;72214;52.510;5.718;2023-08-20T00:33:15;2.72;;;1.02;;
81314;SDS011;72214;52.510;5.718;2023-08-20T00:35:44;2.92;;;1.00;;
81314;SDS011;72214;52.510;5.718;2023-08-20T00:38:13;2.85;;;1.27;;
81314;SDS011;72214;52.510;5.718;2023-08-20T00:40:43;1.38;;;0.93;;
81314;SDS011;72214;52.510;5.718;2023-08-20T00:43:12;1.35;;;1.15;;
81314;SDS011;72214;52.510;5.718;2023-08-20T00:45:44;4.10;;;1.25;;
81314;SDS011;72214;52.510;5.718;2023-08-20T00:48:13;3.58;;;1.17;;
81314;SDS011;72214;52.510;5.718;2023-08-20T00:50:43;3.22;;;1.40;;
81314;SDS011;72214;52.510;5.718;2023-08-20T00:53:12;1.92;;;1.27;;
81314;SDS011;72214;52.510;5.718;2023-08-20T00:55:43;1.55;;;1.15;;
81314;SDS011;72214;52.510;5.718;2023-08-20T00:58:12;1.88;;;1.33;;
81314;SDS011;72214;52.510;5.718;2023-08-20T01:00:44;4.78;;;1.30;;
81314;SDS011;72214;52.510;5.718;2023-08-20T01:03:14;3.22;;;1.30;;
81314;SDS011;72214;52.510;5.718;2023-08-20T01:05:44;2.35;;;1.02;;
81314;SDS011;72214;52.510;5.718;2023-08-20T01:08:21;2.20;;;1.02;;
81314;SDS011;72214;52.510;5.718;2023-08-20T01:11:03;1.70;;;1.15;;
81314;SDS011;72214;52.510;5.718;2023-08-20T01:13:39;2.92;;;1.52;;
81314;SDS011;72214;52.510;5.718;2023-08-20T01:16:11;5.05;;;1.30;;
81314;SDS011;72214;52.510;5.718;2023-08-20T01:18:40;2.10;;;1.17;;
81314;SDS011;72214;52.510;5.718;2023-08-20T01:21:15;1.00;;;0.88;;
81314;SDS011;72214;52.510;5.718;2023-08-20T01:26:56;5.03;;;0.85;;
81314;SDS011;72214;52.510;5.718;2023-08-20T01:29:39;4.60;;;1.30;;
81314;SDS011;72214;52.510;5.718;2023-08-20T01:32:09;2.45;;;1.13;;
81314;SDS011;72214;52.510;5.718;2023-08-20T01:34:39;4.18;;;1.15;;
81314;SDS011;72214;52.510;5.718;2023-08-20T01:37:08;1.92;;;1.35;;
81314;SDS011;72214;52.510;5.718;2023-08-20T01:39:38;2.42;;;1.20;;
81314;SDS011;72214;52.510;5.718;2023-08-20T01:42:07;1.75;;;0.80;;
81314;SDS011;72214;52.510;5.718;2023-08-20T01:44:37;3.38;;;1.20;;
81314;SDS011;72214;52.510;5.718;2023-08-20T01:47:08;6.43;;;1.33;;
81314;SDS011;72214;52.510;5.718;2023-08-20T01:49:38;1.73;;;1.00;;
81314;SDS011;72214;52.510;5.718;2023-08-20T01:52:07;5.35;;;1.60;;
81314;SDS011;72214;52.510;5.718;2023-08-20T01:54:36;5.63;;;1.45;;
81314;SDS011;72214;52.510;5.718;2023-08-20T01:57:05;2.13;;;1.13;;
81314;SDS011;72214;52.510;5.718;2023-08-20T01:59:35;6.78;;;1.65;;
81314;SDS011;72214;52.510;5.718;2023-08-20T02:02:07;4.45;;;1.30;;
81314;SDS011;72214;52.510;5.718;2023-08-20T02:04:36;2.30;;;1.30;;
81314;SDS011;72214;52.510;5.718;2023-08-20T02:07:05;3.90;;;1.85;;
81314;SDS011;72214;52.510;5.718;2023-08-20T02:09:35;6.50;;;1.33;;
81314;SDS011;72214;52.510;5.718;2023-08-20T02:12:04;2.35;;;1.33;;
81314;SDS011;72214;52.510;5.718;2023-08-20T02:14:34;1.92;;;0.90;;
81314;SDS011;72214;52.510;5.718;2023-08-20T02:17:03;6.90;;;2.38;;
81314;SDS011;72214;52.510;5.718;2023-08-20T02:19:37;2.72;;;1.70;;
81314;SDS011;72214;52.510;5.718;2023-08-20T02:22:07;5.53;;;2.22;;
81314;SDS011;72214;52.510;5.718;2023-08-20T02:24:36;2.60;;;1.90;;
81314;SDS011;72214;52.510;5.718;2023-08-20T02:27:05;5.55;;;2.00;;
81314;SDS011;72214;52.510;5.718;2023-08-20T02:29:34;2.83;;;1.88;;
81314;SDS011;72214;52.510;5.718;2023-08-20T02:32:06;3.83;;;1.85;;
81314;SDS011;72214;52.510;5.718;2023-08-20T02:34:36;3.08;;;1.73;;
81314;SDS011;72214;52.510;5.718;2023-08-20T02:37:05;3.58;;;2.08;;
81314;SDS011;72214;52.510;5.718;2023-08-20T02:39:34;4.47;;;2.05;;
81314;SDS011;72214;52.510;5.718;2023-08-20T02:42:03;2.40;;;1.73;;
81314;SDS011;72214;52.510;5.718;2023-08-20T02:44:33;2.72;;;1.63;;
81314;SDS011;72214;52.510;5.718;2023-08-20T02:47:02;4.70;;;2.03;;
81314;SDS011;72214;52.510;5.718;2023-08-20T02:49:34;3.05;;;1.42;;
81314;SDS011;72214;52.510;5.718;2023-08-20T02:52:04;7.70;;;2.67;;
81314;SDS011;72214;52.510;5.718;2023-08-20T02:54:34;3.67;;;2.17;;
81314;SDS011;72214;52.510;5.718;2023-08-20T02:57:03;5.10;;;2.40;;
81314;SDS011;72214;52.510;5.718;2023-08-20T02:59:32;5.40;;;2.25;;
81314;SDS011;72214;52.510;5.718;2023-08-20T03:02:01;5.72;;;1.90;;
81314;SDS011;72214;52.510;5.718;2023-08-20T03:04:32;3.90;;;2.35;;
81314;SDS011;72214;52.510;5.718;2023-08-20T03:07:03;2.28;;;1.90;;
81314;SDS011;72214;52.510;5.718;2023-08-20T03:09:32;3.58;;;2.45;;
81314;SDS011;72214;52.510;5.718;2023-08-20T03:12:02;2.83;;;2.00;;
81314;SDS011;72214;52.510;5.718;2023-08-20T03:14:32;3.10;;;1.83;;
81314;SDS011;72214;52.510;5.718;2023-08-20T03:17:01;8.70;;;1.95;;
81314;SDS011;72214;52.510;5.718;2023-08-20T03:19:32;6.85;;;2.53;;
81314;SDS011;72214;52.510;5.718;2023-08-20T03:22:04;3.45;;;2.03;;
81314;SDS011;72214;52.510;5.718;2023-08-20T03:24:33;5.03;;;2.30;;
81314;SDS011;72214;52.510;5.718;2023-08-20T03:27:02;4.05;;;1.73;;
81314;SDS011;72214;52.510;5.718;2023-08-20T03:29:32;4.35;;;2.20;;
81314;SDS011;72214;52.510;5.718;2023-08-20T03:32:01;3.45;;;2.28;;
81314;SDS011;72214;52.510;5.718;2023-08-20T03:34:31;3.97;;;2.00;;
81314;SDS011;72214;52.510;5.718;2023-08-20T03:37:03;8.35;;;2.35;;
81314;SDS011;72214;52.510;5.718;2023-08-20T03:39:34;5.40;;;2.35;;
81314;SDS011;72214;52.510;5.718;2023-08-20T03:42:03;4.78;;;2.63;;
81314;SDS011;72214;52.510;5.718;2023-08-20T03:44:33;5.45;;;2.30;;
81314;SDS011;72214;52.510;5.718;2023-08-20T03:47:02;4.15;;;2.33;;
81314;SDS011;72214;52.510;5.718;2023-08-20T03:49:31;2.72;;;2.08;;
81314;SDS011;72214;52.510;5.718;2023-08-20T03:52:03;6.93;;;2.83;;
81314;SDS011;72214;52.510;5.718;2023-08-20T03:54:33;5.97;;;2.20;;
81314;SDS011;72214;52.510;5.718;2023-08-20T03:57:03;6.43;;;2.40;;
81314;SDS011;72214;52.510;5.718;2023-08-20T03:59:33;4.47;;;2.42;;
81314;SDS011;72214;52.510;5.718;2023-08-20T04:02:02;6.15;;;2.42;;
81314;SDS011;72214;52.510;5.718;2023-08-20T04:04:31;3.63;;;1.92;;
81314;SDS011;72214;52.510;5.718;2023-08-20T04:07:05;5.95;;;2.63;;
81314;SDS011;72214;52.510;5.718;2023-08-20T04:09:34;5.15;;;2.50;;
81314;SDS011;72214;52.510;5.718;2023-08-20T04:12:05;3.80;;;2.22;;
81314;SDS011;72214;52.510;5.718;2023-08-20T04:14:36;9.20;;;2.85;;
81314;SDS011;72214;52.510;5.718;2023-08-20T04:17:05;2.88;;;2.10;;
81314;SDS011;72214;52.510;5.718;2023-08-20T04:19:35;5.45;;;2.80;;
81314;SDS011;72214;52.510;5.718;2023-08-20T04:22:07;3.20;;;2.15;;
81314;SDS011;72214;52.510;5.718;2023-08-20T04:24:36;4.28;;;2.45;;
81314;SDS011;72214;52.510;5.718;2023-08-20T04:27:06;3.85;;;2.58;;
81314;SDS011;72214;52.510;5.718;2023-08-20T04:29:36;6.20;;;2.40;;
81314;SDS011;72214;52.510;5.718;2023-08-20T04:32:06;6.15;;;2.47;;
81314;SDS011;72214;52.510;5.718;2023-08-20T04:34:35;7.10;;;2.58;;
81314;SDS011;72214;52.510;5.718;2023-08-20T04:37:07;5.63;;;2.70;;
81314;SDS011;72214;52.510;5.718;2023-08-20T04:39:36;8.15;;;2.67;;
81314;SDS011;72214;52.510;5.718;2023-08-20T04:42:05;3.10;;;2.13;;
81314;SDS011;72214;52.510;5.718;2023-08-20T04:44:34;5.50;;;2.30;;
81314;SDS011;72214;52.510;5.718;2023-08-20T04:47:03;3.50;;;2.60;;
81314;SDS011;72214;52.510;5.718;2023-08-20T04:49:33;6.22;;;2.13;;
81314;SDS011;72214;52.510;5.718;2023-08-20T04:52:03;5.25;;;2.92;;
81314;SDS011;72214;52.510;5.718;2023-08-20T04:54:35;5.72;;;2.95;;
81314;SDS011;72214;52.510;5.718;2023-08-20T04:57:05;5.15;;;2.15;;
81314;SDS011;72214;52.510;5.718;2023-08-20T04:59:34;4.03;;;2.20;;
81314;SDS011;72214;52.510;5.718;2023-08-20T05:02:18;3.67;;;2.38;;
81314;SDS011;72214;52.510;5.718;2023-08-20T05:04:53;12.63;;;3.25;;
81314;SDS011;72214;52.510;5.718;2023-08-20T05:07:23;4.25;;;2.40;;
81314;SDS011;72214;52.510;5.718;2023-08-20T05:09:55;4.10;;;2.25;;
81314;SDS011;72214;52.510;5.718;2023-08-20T05:12:24;5.82;;;2.33;;
81314;SDS011;72214;52.510;5.718;2023-08-20T05:14:53;4.40;;;2.38;;
81314;SDS011;72214;52.510;5.718;2023-08-20T05:17:22;4.97;;;2.72;;
81314;SDS011;72214;52.510;5.718;2023-08-20T05:19:52;5.88;;;2.85;;
81314;SDS011;72214;52.510;5.718;2023-08-20T05:22:21;4.53;;;2.47;;
81314;SDS011;72214;52.510;5.718;2023-08-20T05:24:50;5.63;;;2.15;;
81314;SDS011;72214;52.510;5.718;2023-08-20T05:27:22;5.28;;;2.00;;
81314;SDS011;72214;52.510;5.718;2023-08-20T05:29:51;4.25;;;2.08;;
81314;SDS011;72214;52.510;5.718;2023-08-20T05:32:20;5.00;;;2.00;;
81314;SDS011;72214;52.510;5.718;2023-08-20T05:34:50;5.78;;;1.75;;
81314;SDS011;72214;52.510;5.718;2023-08-20T05:37:19;6.68;;;2.10;;
81314;SDS011;72214;52.510;5.718;2023-08-20T05:39:48;3.28;;;2.25;;
81314;SDS011;72214;52.510;5.718;2023-08-20T05:42:17;5.30;;;2.15;;
81314;SDS011;72214;52.510;5.718;2023-08-20T05:44:55;5.43;;;1.90;;
81314;SDS011;72214;52.510;5.718;2023-08-20T05:47:27;7.03;;;1.85;;
81314;SDS011;72214;52.510;5.718;2023-08-20T05:49:56;2.58;;;1.33;;
81314;SDS011;72214;52.510;5.718;2023-08-20T05:52:25;2.47;;;1.40;;
81314;SDS011;72214;52.510;5.718;2023-08-20T05:54:55;5.43;;;1.60;;
81314;SDS011;72214;52.510;5.718;2023-08-20T05:57:24;2.75;;;1.40;;
81314;SDS011;72214;52.510;5.718;2023-08-20T05:59:55;5.28;;;1.85;;
81314;SDS011;72214;52.510;5.718;2023-08-20T06:02:25;5.13;;;1.60;;
81314;SDS011;72214;52.510;5.718;2023-08-20T06:04:54;5.30;;;2.00;;
81314;SDS011;72214;52.510;5.718;2023-08-20T06:07:23;10.88;;;2.10;;
81314;SDS011;72214;52.510;5.718;2023-08-20T06:09:53;4.85;;;1.95;;
81314;SDS011;72214;52.510;5.718;2023-08-20T06:12:22;5.45;;;1.67;;
81314;SDS011;72214;52.510;5.718;2023-08-20T06:14:51;4.57;;;1.63;;
81314;SDS011;72214;52.510;5.718;2023-08-20T06:17:23;5.10;;;1.67;;
81314;SDS011;72214;52.510;5.718;2023-08-20T06:19:52;6.97;;;1.85;;
81314;SDS011;72214;52.510;5.718;2023-08-20T06:22:21;4.30;;;1.55;;
81314;SDS011;72214;52.510;5.718;2023-08-20T06:24:51;3.85;;;1.60;;
81314;SDS011;72214;52.510;5.718;2023-08-20T06:27:20;5.07;;;1.42;;
81314;SDS011;72214;52.510;5.718;2023-08-20T06:29:49;5.28;;;1.65;;
81314;SDS011;72214;52.510;5.718;2023-08-20T06:32:19;8.38;;;1.52;;
81314;SDS011;72214;52.510;5.718;2023-08-20T06:34:50;3.75;;;1.48;;
81314;SDS011;72214;52.510;5.718;2023-08-20T06:37:20;7.93;;;1.50;;
81314;SDS011;72214;52.510;5.718;2023-08-20T06:39:49;4.93;;;1.42;;
81314;SDS011;72214;52.510;5.718;2023-08-20T06:42:18;5.70;;;1.70;;
81314;SDS011;72214;52.510;5.718;2023-08-20T06:44:47;3.75;;;1.40;;
81314;SDS011;72214;52.510;5.718;2023-08-20T06:47:17;6.97;;;1.63;;
81314;SDS011;72214;52.510;5.718;2023-08-20T06:49:46;5.32;;;1.85;;
81314;SDS011;72214;52.510;5.718;2023-08-20T06:52:17;6.82;;;1.35;;
81314;SDS011;72214;52.510;5.718;2023-08-20T06:54:47;5.72;;;1.65;;
81314;SDS011;72214;52.510;5.718;2023-08-20T06:57:16;4.90;;;1.40;;
81314;SDS011;72214;52.510;5.718;2023-08-20T06:59:45;6.95;;;1.42;;
81314;SDS011;72214;52.510;5.718;2023-08-20T07:02:14;5.90;;;1.52;;
81314;SDS011;72214;52.510;5.718;2023-08-20T07:04:43;6.30;;;1.25;;
81314;SDS011;72214;52.510;5.718;2023-08-20T07:07:13;6.22;;;1.42;;
81314;SDS011;72214;52.510;5.718;2023-08-20T07:09:44;3.42;;;1.60;;
81314;SDS011;72214;52.510;5.718;2023-08-20T07:12:14;8.50;;;1.60;;
81314;SDS011;72214;52.510;5.718;2023-08-20T07:14:43;2.55;;;1.35;;
81314;SDS011;72214;52.510;5.718;2023-08-20T07:17:12;6.82;;;1.42;;
81314;SDS011;72214;52.510;5.718;2023-08-20T07:19:41;6.35;;;1.20;;
81314;SDS011;72214;52.510;5.718;2023-08-20T07:22:10;4.13;;;1.35;;
81314;SDS011;72214;52.510;5.718;2023-08-20T07:24:39;5.55;;;1.50;;
81314;SDS011;72214;52.510;5.718;2023-08-20T07:27:11;6.75;;;1.52;;
81314;SDS011;72214;52.510;5.718;2023-08-20T07:29:41;4.50;;;1.27;;
81314;SDS011;72214;52.510;5.718;2023-08-20T07:32:10;7.75;;;1.63;;
81314;SDS011;72214;52.510;5.718;2023-08-20T07:34:39;5.70;;;1.10;;
81314;SDS011;72214;52.510;5.718;2023-08-20T07:37:09;7.05;;;1.25;;
81314;SDS011;72214;52.510;5.718;2023-08-20T07:39:38;7.45;;;1.67;;
81314;SDS011;72214;52.510;5.718;2023-08-20T07:42:07;10.02;;;1.60;;
81314;SDS011;72214;52.510;5.718;2023-08-20T07:44:39;9.90;;;1.70;;
81314;SDS011;72214;52.510;5.718;2023-08-20T07:47:08;5.13;;;1.38;;
81314;SDS011;72214;52.510;5.718;2023-08-20T07:49:38;9.15;;;2.28;;
81314;SDS011;72214;52.510;5.718;2023-08-20T07:52:07;5.22;;;1.30;;
81314;SDS011;72214;52.510;5.718;2023-08-20T07:54:37;4.95;;;1.40;;
81314;SDS011;72214;52.510;5.718;2023-08-20T07:57:06;7.82;;;2.13;;
81314;SDS011;72214;52.510;5.718;2023-08-20T07:59:35;3.95;;;1.60;;
81314;SDS011;72214;52.510;5.718;2023-08-20T08:02:07;3.85;;;1.02;;
81314;SDS011;72214;52.510;5.718;2023-08-20T08:04:36;6.72;;;1.20;;
81314;SDS011;72214;52.510;5.718;2023-08-20T08:07:05;5.63;;;1.00;;
81314;SDS011;72214;52.510;5.718;2023-08-20T08:09:34;3.17;;;1.10;;
81314;SDS011;72214;52.510;5.718;2023-08-20T08:12:04;7.28;;;1.25;;
81314;SDS011;72214;52.510;5.718;2023-08-20T08:14:33;6.43;;;1.23;;
81314;SDS011;72214;52.510;5.718;2023-08-20T08:17:03;4.30;;;1.35;;
81314;SDS011;72214;52.510;5.718;2023-08-20T08:19:35;8.18;;;1.63;;
81314;SDS011;72214;52.510;5.718;2023-08-20T08:22:05;3.75;;;1.13;;
81314;SDS011;72214;52.510;5.718;2023-08-20T08:24:34;2.45;;;1.10;;
81314;SDS011;72214;52.510;5.718;2023-08-20T08:27:03;5.07;;;1.10;;
81314;SDS011;72214;52.510;5.718;2023-08-20T08:29:32;3.10;;;1.55;;
81314;SDS011;72214;52.510;5.718;2023-08-20T08:32:02;2.10;;;1.10;;
81314;SDS011;72214;52.510;5.718;2023-08-20T08:34:31;8.88;;;1.60;;
81314;SDS011;72214;52.510;5.718;2023-08-20T08:37:03;4.72;;;1.38;;
81314;SDS011;72214;52.510;5.718;2023-08-20T08:39:32;7.90;;;1.27;;
81314;SDS011;72214;52.510;5.718;2023-08-20T08:42:02;8.93;;;1.00;;
81314;SDS011;72214;52.510;5.718;2023-08-20T08:44:33;7.60;;;0.80;;
81314;SDS011;72214;52.510;5.718;2023-08-20T08:47:03;7.35;;;0.73;;
81314;SDS011;72214;52.510;5.718;2023-08-20T08:49:33;3.97;;;0.70;;
81314;SDS011;72214;52.510;5.718;2023-08-20T08:52:06;7.00;;;0.95;;
81314;SDS011;72214;52.510;5.718;2023-08-20T08:54:36;3.95;;;0.80;;
81314;SDS011;72214;52.510;5.718;2023-08-20T08:57:05;3.88;;;0.90;;
81314;SDS011;72214;52.510;5.718;2023-08-20T08:59:34;2.80;;;0.57;;
81314;SDS011;72214;52.510;5.718;2023-08-20T09:02:05;1.30;;;0.80;;
81314;SDS011;72214;52.510;5.718;2023-08-20T09:04:37;1.30;;;0.60;;
81314;SDS011;72214;52.510;5.718;2023-08-20T09:07:13;2.50;;;0.63;;
81314;SDS011;72214;52.510;5.718;2023-08-20T09:09:44;2.78;;;0.60;;
81314;SDS011;72214;52.510;5.718;2023-08-20T09:12:15;2.80;;;0.73;;
81314;SDS011;72214;52.510;5.718;2023-08-20T09:14:45;0.75;;;0.40;;
81314;SDS011;72214;52.510;5.718;2023-08-20T09:17:16;2.40;;;0.80;;
81314;SDS011;72214;52.510;5.718;2023-08-20T09:19:46;3.40;;;0.65;;
81314;SDS011;72214;52.510;5.718;2023-08-20T09:22:18;3.78;;;0.70;;
81314;SDS011;72214;52.510;5.718;2023-08-20T09:24:51;3.30;;;0.73;;
81314;SDS011;72214;52.510;5.718;2023-08-20T09:27:22;4.40;;;0.80;;
81314;SDS011;72214;52.510;5.718;2023-08-20T09:29:55;2.80;;;0.80;;
81314;SDS011;72214;52.510;5.718;2023-08-20T09:32:27;6.65;;;0.80;;
81314;SDS011;72214;52.510;5.718;2023-08-20T09:34:57;4.10;;;1.13;;
81314;SDS011;72214;52.510;5.718;2023-08-20T09:37:28;2.47;;;0.60;;
81314;SDS011;72214;52.510;5.718;2023-08-20T09:39:57;1.30;;;0.40;;
81314;SDS011;72214;52.510;5.718;2023-08-20T09:42:28;3.40;;;0.50;;
81314;SDS011;72214;52.510;5.718;2023-08-20T09:45:01;3.00;;;0.40;;
81314;SDS011;72214;52.510;5.718;2023-08-20T09:47:32;2.30;;;0.45;;
81314;SDS011;72214;52.510;5.718;2023-08-20T09:50:05;7.05;;;0.80;;
81314;SDS011;72214;52.510;5.718;2023-08-20T09:52:42;3.97;;;0.60;;
81314;SDS011;72214;52.510;5.718;2023-08-20T09:55:17;10.93;;;0.65;;
81314;SDS011;72214;52.510;5.718;2023-08-20T09:57:49;2.97;;;0.85;;
81314;SDS011;72214;52.510;5.718;2023-08-20T10:00:20;1.35;;;0.52;;
81314;SDS011;72214;52.510;5.718;2023-08-20T10:02:50;4.05;;;0.55;;
81314;SDS011;72214;52.510;5.718;2023-08-20T10:05:20;4.95;;;0.95;;
81314;SDS011;72214;52.510;5.718;2023-08-20T10:07:55;2.80;;;0.75;;
81314;SDS011;72214;52.510;5.718;2023-08-20T10:10:24;1.27;;;0.30;;
81314;SDS011;72214;52.510;5.718;2023-08-20T10:12:54;2.50;;;0.57;;
81314;SDS011;72214;52.510;5.718;2023-08-20T10:15:25;1.35;;;0.50;;
81314;SDS011;72214;52.510;5.718;2023-08-20T10:17:57;4.18;;;0.55;;
81314;SDS011;72214;52.510;5.718;2023-08-20T10:20:26;3.47;;;0.52;;
81314;SDS011;72214;52.510;5.718;2023-08-20T10:23:02;3.45;;;0.80;;
81314;SDS011;72214;52.510;5.718;2023-08-20T10:25:33;2.33;;;0.65;;
81314;SDS011;72214;52.510;5.718;2023-08-20T10:28:13;3.47;;;0.50;;
81314;SDS011;72214;52.510;5.718;2023-08-20T10:33:31;5.72;;;0.65;;
81314;SDS011;72214;52.510;5.718;2023-08-20T10:36:09;4.38;;;0.63;;
81314;SDS011;72214;52.510;5.718;2023-08-20T10:38:44;4.57;;;0.85;;
81314;SDS011;72214;52.510;5.718;2023-08-20T10:41:15;3.97;;;0.98;;
81314;SDS011;72214;52.510;5.718;2023-08-20T10:43:48;1.20;;;0.50;;
81314;SDS011;72214;52.510;5.718;2023-08-20T10:46:19;3.28;;;0.77;;
81314;SDS011;72214;52.510;5.718;2023-08-20T10:48:51;6.03;;;0.80;;
81314;SDS011;72214;52.510;5.718;2023-08-20T10:51:24;6.28;;;0.57;;
81314;SDS011;72214;52.510;5.718;2023-08-20T10:54:07;0.90;;;0.57;;
81314;SDS011;72214;52.510;5.718;2023-08-20T10:56:43;3.97;;;0.90;;
81314;SDS011;72214;52.510;5.718;2023-08-20T10:59:13;6.15;;;0.88;;
81314;SDS011;72214;52.510;5.718;2023-08-20T11:01:45;7.25;;;1.10;;
81314;SDS011;72214;52.510;5.718;2023-08-20T11:04:15;2.63;;;0.73;;
81314;SDS011;72214;52.510;5.718;2023-08-20T11:06:45;6.68;;;1.17;;
81314;SDS011;72214;52.510;5.718;2023-08-20T11:09:17;2.50;;;0.52;;
81314;SDS011;72214;52.510;5.718;2023-08-20T11:11:47;0.95;;;0.43;;
81314;SDS011;72214;52.510;5.718;2023-08-20T11:14:18;3.45;;;0.73;;
81314;SDS011;72214;52.510;5.718;2023-08-20T11:16:49;4.03;;;1.08;;
81314;SDS011;72214;52.510;5.718;2023-08-20T11:19:19;3.30;;;0.75;;
81314;SDS011;72214;52.510;5.718;2023-08-20T11:21:49;6.90;;;1.02;;
81314;SDS011;72214;52.510;5.718;2023-08-20T11:24:22;1.30;;;0.52;;
81314;SDS011;72214;52.510;5.718;2023-08-20T11:26:53;1.63;;;0.70;;
81314;SDS011;72214;52.510;5.718;2023-08-20T11:29:24;1.60;;;0.50;;
81314;SDS011;72214;52.510;5.718;2023-08-20T11:31:57;5.90;;;0.82;;
81314;SDS011;72214;52.510;5.718;2023-08-20T11:34:28;2.95;;;0.95;;
81314;SDS011;72214;52.510;5.718;2023-08-20T11:37:00;3.13;;;0.40;;
81314;SDS011;72214;52.510;5.718;2023-08-20T11:39:32;6.03;;;0.65;;
81314;SDS011;72214;52.510;5.718;2023-08-20T11:42:01;1.90;;;0.43;;
81314;SDS011;72214;52.510;5.718;2023-08-20T11:44:41;1.98;;;0.50;;
81314;SDS011;72214;52.510;5.718;2023-08-20T11:47:13;1.92;;;0.20;;
81314;SDS011;72214;52.510;5.718;2023-08-20T11:49:43;10.18;;;0.90;;
81314;SDS011;72214;52.510;5.718;2023-08-20T11:52:12;3.28;;;0.52;;
81314;SDS011;72214;52.510;5.718;2023-08-20T11:54:46;4.28;;;0.57;;
81314;SDS011;72214;52.510;5.718;2023-08-20T11:57:16;3.20;;;0.45;;
81314;SDS011;72214;52.510;5.718;2023-08-20T11:59:46;1.00;;;0.50;;
81314;SDS011;72214;52.510;5.718;2023-08-20T12:02:24;4.13;;;0.77;;
81314;SDS011;72214;52.510;5.718;2023-08-20T12:04:55;1.67;;;0.45;;
81314;SDS011;72214;52.510;5.718;2023-08-20T12:07:25;2.65;;;0.55;;
81314;SDS011;72214;52.510;5.718;2023-08-20T12:09:57;2.20;;;0.30;;
81314;SDS011;72214;52.510;5.718;2023-08-20T12:12:27;5.10;;;0.63;;
81314;SDS011;72214;52.510;5.718;2023-08-20T12:14:56;2.80;;;0.85;;
81314;SDS011;72214;52.510;5.718;2023-08-20T12:17:25;1.75;;;0.52;;
81314;SDS011;72214;52.510;5.718;2023-08-20T12:19:55;0.82;;;0.35;;
81314;SDS011;72214;52.510;5.718;2023-08-20T12:22:24;1.60;;;0.22;;
81314;SDS011;72214;52.510;5.718;2023-08-20T12:24:53;0.95;;;0.22;;
81314;SDS011;72214;52.510;5.718;2023-08-20T12:27:25;4.22;;;0.77;;
81314;SDS011;72214;52.510;5.718;2023-08-20T12:29:55;3.40;;;0.60;;
81314;SDS011;72214;52.510;5.718;2023-08-20T12:32:24;4.63;;;0.70;;
81314;SDS011;72214;52.510;5.718;2023-08-20T12:34:53;2.63;;;0.40;;
81314;SDS011;72214;52.510;5.718;2023-08-20T12:37:22;2.97;;;0.38;;
81314;SDS011;72214;52.510;5.718;2023-08-20T12:39:52;1.65;;;0.38;;
81314;SDS011;72214;52.510;5.718;2023-08-20T12:42:21;4.60;;;0.50;;
81314;SDS011;72214;52.510;5.718;2023-08-20T12:44:53;2.47;;;0.70;;
81314;SDS011;72214;52.510;5.718;2023-08-20T12:47:22;1.40;;;0.38;;
81314;SDS011;72214;52.510;5.718;2023-08-20T12:49:51;1.20;;;0.60;;
81314;SDS011;72214;52.510;5.718;2023-08-20T12:52:20;2.70;;;0.30;;
81314;SDS011;72214;52.510;5.718;2023-08-20T12:54:49;1.90;;;0.40;;
81314;SDS011;72214;52.510;5.718;2023-08-20T12:57:18;2.03;;;0.20;;
81314;SDS011;72214;52.510;5.718;2023-08-20T12:59:48;3.53;;;0.55;;
81314;SDS011;72214;52.510;5.718;2023-08-20T13:02:20;2.92;;;0.50;;
81314;SDS011;72214;52.510;5.718;2023-08-20T13:04:50;1.42;;;0.52;;
81314;SDS011;72214;52.510;5.718;2023-08-20T13:07:20;1.55;;;0.57;;
81314;SDS011;72214;52.510;5.718;2023-08-20T13:09:50;1.40;;;0.60;;
81314;SDS011;72214;52.510;5.718;2023-08-20T13:12:20;1.52;;;0.43;;
81314;SDS011;72214;52.510;5.718;2023-08-20T13:14:55;1.75;;;0.40;;
81314;SDS011;72214;52.510;5.718;2023-08-20T13:17:28;4.30;;;0.52;;
81314;SDS011;72214;52.510;5.718;2023-08-20T13:19:57;0.98;;;0.75;;
81314;SDS011;72214;52.510;5.718;2023-08-20T13:22:26;5.18;;;0.73;;
81314;SDS011;72214;52.510;5.718;2023-08-20T13:24:56;1.02;;;0.38;;
81314;SDS011;72214;52.510;5.718;2023-08-20T13:27:25;5.78;;;0.55;;
81314;SDS011;72214;52.510;5.718;2023-08-20T13:29:54;6.45;;;0.57;;
81314;SDS011;72214;52.510;5.718;2023-08-20T13:32:23;4.50;;;0.30;;
81314;SDS011;72214;52.510;5.718;2023-08-20T13:34:55;0.98;;;0.25;;
81314;SDS011;72214;52.510;5.718;2023-08-20T13:37:24;4.15;;;0.50;;
81314;SDS011;72214;52.510;5.718;2023-08-20T13:39:53;2.85;;;0.40;;
81314;SDS011;72214;52.510;5.718;2023-08-20T13:42:23;0.75;;;0.40;;
81314;SDS011;72214;52.510;5.718;2023-08-20T13:44:52;1.98;;;0.50;;
81314;SDS011;72214;52.510;5.718;2023-08-20T13:47:21;2.30;;;0.50;;
81314;SDS011;72214;52.510;5.718;2023-08-20T13:49:50;1.98;;;0.57;;
81314;SDS011;72214;52.510;5.718;2023-08-20T13:52:22;1.50;;;0.55;;
81314;SDS011;72214;52.510;5.718;2023-08-20T13:54:51;1.77;;;0.50;;
81314;SDS011;72214;52.510;5.718;2023-08-20T13:57:21;4.93;;;0.30;;
81314;SDS011;72214;52.510;5.718;2023-08-20T13:59:50;3.15;;;0.30;;
81314;SDS011;72214;52.510;5.718;2023-08-20T14:02:19;4.00;;;0.90;;
81314;SDS011;72214;52.510;5.718;2023-08-20T14:04:48;3.88;;;0.60;;
81314;SDS011;72214;52.510;5.718;2023-08-20T14:07:17;0.95;;;0.38;;
81314;SDS011;72214;52.510;5.718;2023-08-20T14:09:49;2.13;;;0.50;;
81314;SDS011;72214;52.510;5.718;2023-08-20T14:12:18;2.20;;;0.60;;
81314;SDS011;72214;52.510;5.718;2023-08-20T14:14:48;1.10;;;0.38;;
81314;SDS011;72214;52.510;5.718;2023-08-20T14:17:17;8.43;;;0.93;;
81314;SDS011;72214;52.510;5.718;2023-08-20T14:19:46;1.50;;;0.50;;
81314;SDS011;72214;52.510;5.718;2023-08-20T14:22:16;3.78;;;1.02;;
81314;SDS011;72214;52.510;5.718;2023-08-20T14:24:49;2.13;;;0.40;;
81314;SDS011;72214;52.510;5.718;2023-08-20T14:27:18;1.05;;;0.32;;
81314;SDS011;72214;52.510;5.718;2023-08-20T14:29:48;1.58;;;0.52;;
81314;SDS011;72214;52.510;5.718;2023-08-20T14:32:17;0.63;;;0.30;;
81314;SDS011;72214;52.510;5.718;2023-08-20T14:34:46;1.52;;;0.50;;
81314;SDS011;72214;52.510;5.718;2023-08-20T14:37:15;1.27;;;0.30;;
81314;SDS011;72214;52.510;5.718;2023-08-20T14:39:44;2.05;;;1.15;;
81314;SDS011;72214;52.510;5.718;2023-08-20T14:42:16;4.80;;;0.60;;
81314;SDS011;72214;52.510;5.718;2023-08-20T14:44:45;1.50;;;0.40;;
81314;SDS011;72214;52.510;5.718;2023-08-20T14:47:15;3.83;;;0.60;;
81314;SDS011;72214;52.510;5.718;2023-08-20T14:49:44;2.33;;;0.52;;
81314;SDS011;72214;52.510;5.718;2023-08-20T14:52:13;3.85;;;0.70;;
81314;SDS011;72214;52.510;5.718;2023-08-20T14:54:42;3.63;;;0.45;;
81314;SDS011;72214;52.510;5.718;2023-08-20T14:57:12;3.03;;;0.63;;
81314;SDS011;72214;52.510;5.718;2023-08-20T14:59:45;3.88;;;0.52;;
81314;SDS011;72214;52.510;5.718;2023-08-20T15:02:15;4.07;;;1.20;;
81314;SDS011;72214;52.510;5.718;2023-08-20T15:04:44;1.90;;;0.65;;
81314;SDS011;72214;52.510;5.718;2023-08-20T15:07:13;2.03;;;0.50;;
81314;SDS011;72214;52.510;5.718;2023-08-20T15:09:42;1.58;;;0.45;;
81314;SDS011;72214;52.510;5.718;2023-08-20T15:12:12;3.58;;;0.95;;